Aviation Digital Data Service (ADDS)

Output produced by METARs form (2236 UTC 30 March 2017)
found at http://www.aviationweather.gov/adds/metars/
 
TAF TAPA 301705Z 3018/3118 05012KT 9999 SCT020 
     PROB30 
     TEMPO 3023/3118 SHRA BKN014